sensor_id;sensor_type;location;lat;lon;timestamp;pressure;altitude;pressure_sealevel;temperature;humidity
46886;BME280;32622;48.202;11.326;2022-09-21T00:01:52;1026.73;;;9.37;26.51
46886;BME280;32622;48.202;11.326;2022-09-21T00:03:56;1026.63;;;9.80;26.09
46886;BME280;32622;48.202;11.326;2022-09-21T00:06:03;1026.60;;;9.91;25.94
46886;BME280;32622;48.202;11.326;2022-09-21T00:08:07;1026.54;;;10.18;26.14
46886;BME280;32622;48.202;11.326;2022-09-21T00:10:12;1026.68;;;9.58;26.14
46886;BME280;32622;48.202;11.326;2022-09-21T00:12:16;1026.57;;;10.10;25.59
46886;BME280;32622;48.202;11.326;2022-09-21T00:14:19;1026.43;;;10.79;25.39
46886;BME280;32622;48.202;11.326;2022-09-21T00:16:22;1026.53;;;10.31;25.73
46886;BME280;32622;48.202;11.326;2022-09-21T00:18:26;1026.82;;;9.07;26.54
46886;BME280;32622;48.202;11.326;2022-09-21T00:20:30;1026.70;;;9.52;26.38
46886;BME280;32622;48.202;11.326;2022-09-21T00:22:33;1026.83;;;9.06;26.58
46886;BME280;32622;48.202;11.326;2022-09-21T00:24:36;1026.74;;;9.27;26.50
46886;BME280;32622;48.202;11.326;2022-09-21T00:26:40;1026.73;;;9.31;26.17
46886;BME280;32622;48.202;11.326;2022-09-21T00:28:43;1026.74;;;9.27;26.31
46886;BME280;32622;48.202;11.326;2022-09-21T00:30:46;1026.70;;;9.46;26.41
46886;BME280;32622;48.202;11.326;2022-09-21T00:32:52;1026.70;;;9.25;26.67
46886;BME280;32622;48.202;11.326;2022-09-21T00:34:55;1026.75;;;9.21;26.98
46886;BME280;32622;48.202;11.326;2022-09-21T00:36:58;1026.82;;;8.89;26.88
46886;BME280;32622;48.202;11.326;2022-09-21T00:39:02;1026.76;;;9.23;26.92
46886;BME280;32622;48.202;11.326;2022-09-21T00:41:06;1026.64;;;9.61;26.20
46886;BME280;32622;48.202;11.326;2022-09-21T00:43:12;1026.65;;;9.59;26.21
46886;BME280;32622;48.202;11.326;2022-09-21T00:45:16;1026.65;;;9.49;26.31
46886;BME280;32622;48.202;11.326;2022-09-21T00:47:24;1026.72;;;9.24;26.51
46886;BME280;32622;48.202;11.326;2022-09-21T00:49:29;1026.82;;;9.05;26.86
46886;BME280;32622;48.202;11.326;2022-09-21T00:51:33;1026.83;;;9.01;26.97
46886;BME280;32622;48.202;11.326;2022-09-21T00:53:37;1026.78;;;9.28;26.97
46886;BME280;32622;48.202;11.326;2022-09-21T00:55:43;1026.91;;;8.66;27.23
46886;BME280;32622;48.202;11.326;2022-09-21T00:57:49;1027.00;;;8.31;27.34
46886;BME280;32622;48.202;11.326;2022-09-21T00:59:57;1026.73;;;9.44;26.48
46886;BME280;32622;48.202;11.326;2022-09-21T01:02:02;1026.52;;;10.15;26.16
46886;BME280;32622;48.202;11.326;2022-09-21T01:04:06;1026.56;;;9.93;26.10
46886;BME280;32622;48.202;11.326;2022-09-21T01:06:10;1026.65;;;9.50;26.10
46886;BME280;32622;48.202;11.326;2022-09-21T01:08:14;1026.83;;;8.93;26.29
46886;BME280;32622;48.202;11.326;2022-09-21T01:10:19;1026.86;;;8.95;26.51
46886;BME280;32622;48.202;11.326;2022-09-21T01:12:36;1026.69;;;9.43;26.78
46886;BME280;32622;48.202;11.326;2022-09-21T01:15:08;1026.67;;;9.45;26.24
46886;BME280;32622;48.202;11.326;2022-09-21T01:17:23;1026.72;;;9.35;26.43
46886;BME280;32622;48.202;11.326;2022-09-21T01:19:59;1026.74;;;9.15;26.30
46886;BME280;32622;48.202;11.326;2022-09-21T01:22:12;1026.85;;;8.75;26.84
46886;BME280;32622;48.202;11.326;2022-09-21T01:24:33;1026.95;;;8.42;27.24
46886;BME280;32622;48.202;11.326;2022-09-21T01:26:55;1026.73;;;9.31;26.45
46886;BME280;32622;48.202;11.326;2022-09-21T01:29:12;1026.69;;;9.45;25.96
46886;BME280;32622;48.202;11.326;2022-09-21T01:31:21;1026.72;;;9.38;26.13
46886;BME280;32622;48.202;11.326;2022-09-21T01:33:30;1026.88;;;8.63;26.78
46886;BME280;32622;48.202;11.326;2022-09-21T01:35:37;1027.09;;;7.67;27.53
46886;BME280;32622;48.202;11.326;2022-09-21T01:37:46;1027.01;;;8.07;27.18
46886;BME280;32622;48.202;11.326;2022-09-21T01:39:54;1026.81;;;8.85;26.50
46886;BME280;32622;48.202;11.326;2022-09-21T01:42:02;1026.86;;;8.58;26.78
46886;BME280;32622;48.202;11.326;2022-09-21T01:44:10;1026.92;;;8.25;26.69
46886;BME280;32622;48.202;11.326;2022-09-21T01:46:17;1026.95;;;8.15;26.85
46886;BME280;32622;48.202;11.326;2022-09-21T01:48:23;1026.91;;;8.31;26.89
46886;BME280;32622;48.202;11.326;2022-09-21T01:50:30;1026.93;;;8.22;26.90
46886;BME280;32622;48.202;11.326;2022-09-21T01:52:39;1027.03;;;7.85;27.14
46886;BME280;32622;48.202;11.326;2022-09-21T01:54:48;1027.02;;;7.90;27.10
46886;BME280;32622;48.202;11.326;2022-09-21T01:56:57;1026.91;;;8.32;26.82
46886;BME280;32622;48.202;11.326;2022-09-21T01:59:08;1027.06;;;7.66;27.20
46886;BME280;32622;48.202;11.326;2022-09-21T02:01:14;1026.80;;;8.80;26.32
46886;BME280;32622;48.202;11.326;2022-09-21T02:03:24;1026.81;;;8.88;26.04
46886;BME280;32622;48.202;11.326;2022-09-21T02:05:30;1026.94;;;8.41;26.28
46886;BME280;32622;48.202;11.326;2022-09-21T02:07:34;1027.07;;;7.91;26.68
46886;BME280;32622;48.202;11.326;2022-09-21T02:09:38;1027.14;;;7.60;27.06
46886;BME280;32622;48.202;11.326;2022-09-21T02:11:41;1027.11;;;7.66;27.33
46886;BME280;32622;48.202;11.326;2022-09-21T02:13:45;1027.09;;;7.91;27.23
46886;BME280;32622;48.202;11.326;2022-09-21T02:16:02;1026.95;;;8.54;26.37
46886;BME280;32622;48.202;11.326;2022-09-21T02:18:15;1026.96;;;8.38;26.32
46886;BME280;32622;48.202;11.326;2022-09-21T02:20:29;1027.10;;;7.87;26.57
46886;BME280;32622;48.202;11.326;2022-09-21T02:22:37;1026.97;;;8.39;26.40
46886;BME280;32622;48.202;11.326;2022-09-21T02:24:45;1027.01;;;8.19;26.54
46886;BME280;32622;48.202;11.326;2022-09-21T02:26:53;1026.97;;;8.37;26.38
46886;BME280;32622;48.202;11.326;2022-09-21T02:29:09;1026.94;;;8.47;26.03
46886;BME280;32622;48.202;11.326;2022-09-21T02:31:22;1026.89;;;8.64;25.89
46886;BME280;32622;48.202;11.326;2022-09-21T02:33:31;1027.10;;;7.83;26.45
46886;BME280;32622;48.202;11.326;2022-09-21T02:35:39;1027.20;;;7.29;26.82
46886;BME280;32622;48.202;11.326;2022-09-21T02:37:48;1027.20;;;7.46;26.84
46886;BME280;32622;48.202;11.326;2022-09-21T02:39:59;1027.17;;;7.54;26.46
46886;BME280;32622;48.202;11.326;2022-09-21T02:42:07;1027.30;;;6.99;27.01
46886;BME280;32622;48.202;11.326;2022-09-21T02:44:16;1027.22;;;7.47;26.71
46886;BME280;32622;48.202;11.326;2022-09-21T02:46:25;1027.17;;;7.64;26.53
46886;BME280;32622;48.202;11.326;2022-09-21T02:48:34;1027.20;;;7.49;26.50
46886;BME280;32622;48.202;11.326;2022-09-21T02:50:43;1027.05;;;8.18;25.91
46886;BME280;32622;48.202;11.326;2022-09-21T02:52:47;1027.05;;;8.20;26.10
46886;BME280;32622;48.202;11.326;2022-09-21T02:54:52;1027.08;;;8.13;25.94
46886;BME280;32622;48.202;11.326;2022-09-21T02:56:58;1026.98;;;8.51;26.09
46886;BME280;32622;48.202;11.326;2022-09-21T02:59:04;1026.98;;;8.47;25.59
46886;BME280;32622;48.202;11.326;2022-09-21T03:01:10;1026.94;;;8.64;25.57
46886;BME280;32622;48.202;11.326;2022-09-21T03:03:16;1027.20;;;7.48;26.17
46886;BME280;32622;48.202;11.326;2022-09-21T03:05:20;1027.25;;;7.29;26.30
46886;BME280;32622;48.202;11.326;2022-09-21T03:07:23;1027.28;;;7.13;26.55
46886;BME280;32622;48.202;11.326;2022-09-21T03:09:26;1027.39;;;6.68;26.83
46886;BME280;32622;48.202;11.326;2022-09-21T03:11:30;1027.20;;;7.59;26.15
46886;BME280;32622;48.202;11.326;2022-09-21T03:13:33;1026.99;;;8.52;25.92
46886;BME280;32622;48.202;11.326;2022-09-21T03:15:37;1027.20;;;7.68;25.90
46886;BME280;32622;48.202;11.326;2022-09-21T03:17:40;1027.24;;;7.58;26.03
46886;BME280;32622;48.202;11.326;2022-09-21T03:19:44;1026.98;;;8.70;25.38
46886;BME280;32622;48.202;11.326;2022-09-21T03:21:47;1027.30;;;7.32;26.23
46886;BME280;32622;48.202;11.326;2022-09-21T03:23:50;1027.36;;;7.02;27.06
46886;BME280;32622;48.202;11.326;2022-09-21T03:25:53;1027.28;;;7.37;26.40
46886;BME280;32622;48.202;11.326;2022-09-21T03:27:57;1027.15;;;7.83;26.22
46886;BME280;32622;48.202;11.326;2022-09-21T03:30:01;1027.11;;;8.14;26.06
46886;BME280;32622;48.202;11.326;2022-09-21T03:32:05;1027.06;;;8.35;25.97
46886;BME280;32622;48.202;11.326;2022-09-21T03:34:08;1027.06;;;8.49;25.81
46886;BME280;32622;48.202;11.326;2022-09-21T03:36:11;1027.17;;;7.98;25.62
46886;BME280;32622;48.202;11.326;2022-09-21T03:38:14;1027.22;;;7.83;25.51
46886;BME280;32622;48.202;11.326;2022-09-21T03:40:18;1027.14;;;8.17;25.69
46886;BME280;32622;48.202;11.326;2022-09-21T03:42:21;1027.38;;;7.16;26.06
46886;BME280;32622;48.202;11.326;2022-09-21T03:44:25;1027.28;;;7.59;25.82
46886;BME280;32622;48.202;11.326;2022-09-21T03:46:28;1027.31;;;7.61;25.73
46886;BME280;32622;48.202;11.326;2022-09-21T03:48:31;1027.38;;;7.27;26.11
46886;BME280;32622;48.202;11.326;2022-09-21T03:50:34;1027.44;;;7.04;26.28
46886;BME280;32622;48.202;11.326;2022-09-21T03:52:38;1027.26;;;7.78;25.84
46886;BME280;32622;48.202;11.326;2022-09-21T03:54:41;1027.28;;;7.64;25.54
46886;BME280;32622;48.202;11.326;2022-09-21T03:56:44;1027.28;;;7.71;25.50
46886;BME280;32622;48.202;11.326;2022-09-21T03:58:47;1027.33;;;7.61;25.44
46886;BME280;32622;48.202;11.326;2022-09-21T04:00:50;1027.33;;;7.60;25.59
46886;BME280;32622;48.202;11.326;2022-09-21T04:02:53;1027.38;;;7.53;25.80
46886;BME280;32622;48.202;11.326;2022-09-21T04:04:57;1027.25;;;8.13;25.45
46886;BME280;32622;48.202;11.326;2022-09-21T04:07:00;1027.32;;;7.93;25.63
46886;BME280;32622;48.202;11.326;2022-09-21T04:09:03;1027.34;;;7.84;25.81
46886;BME280;32622;48.202;11.326;2022-09-21T04:11:09;1027.35;;;7.81;25.88
46886;BME280;32622;48.202;11.326;2022-09-21T04:13:12;1027.35;;;7.81;25.38
46886;BME280;32622;48.202;11.326;2022-09-21T04:15:18;1027.43;;;7.55;25.28
46886;BME280;32622;48.202;11.326;2022-09-21T04:17:21;1027.44;;;7.69;26.04
46886;BME280;32622;48.202;11.326;2022-09-21T04:19:25;1027.28;;;8.12;25.61
46886;BME280;32622;48.202;11.326;2022-09-21T04:21:28;1027.35;;;7.92;25.66
46886;BME280;32622;48.202;11.326;2022-09-21T04:23:32;1027.45;;;7.43;25.71
46886;BME280;32622;48.202;11.326;2022-09-21T04:25:35;1027.31;;;7.90;25.31
46886;BME280;32622;48.202;11.326;2022-09-21T04:27:38;1027.61;;;6.84;25.62
46886;BME280;32622;48.202;11.326;2022-09-21T04:29:42;1027.57;;;7.05;25.64
46886;BME280;32622;48.202;11.326;2022-09-21T04:31:45;1027.45;;;7.49;25.45
46886;BME280;32622;48.202;11.326;2022-09-21T04:33:51;1027.42;;;7.71;25.38
46886;BME280;32622;48.202;11.326;2022-09-21T04:35:55;1027.54;;;7.30;25.15
46886;BME280;32622;48.202;11.326;2022-09-21T04:37:58;1027.69;;;6.64;26.15
46886;BME280;32622;48.202;11.326;2022-09-21T04:40:02;1027.72;;;6.59;26.06
46886;BME280;32622;48.202;11.326;2022-09-21T04:42:06;1027.85;;;6.08;26.42
46886;BME280;32622;48.202;11.326;2022-09-21T04:44:09;1027.74;;;6.67;26.06
46886;BME280;32622;48.202;11.326;2022-09-21T04:46:14;1027.80;;;6.32;26.39
46886;BME280;32622;48.202;11.326;2022-09-21T04:48:18;1027.63;;;7.15;25.80
46886;BME280;32622;48.202;11.326;2022-09-21T04:50:21;1027.71;;;6.79;25.47
46886;BME280;32622;48.202;11.326;2022-09-21T04:52:24;1027.62;;;7.37;24.95
46886;BME280;32622;48.202;11.326;2022-09-21T04:54:27;1027.56;;;7.79;24.86
46886;BME280;32622;48.202;11.326;2022-09-21T04:56:31;1027.79;;;6.79;25.15
46886;BME280;32622;48.202;11.326;2022-09-21T04:58:34;1027.92;;;6.50;25.68
46886;BME280;32622;48.202;11.326;2022-09-21T05:00:37;1027.84;;;6.86;25.71
46886;BME280;32622;48.202;11.326;2022-09-21T05:02:41;1027.88;;;6.55;25.81
46886;BME280;32622;48.202;11.326;2022-09-21T05:04:44;1027.77;;;7.15;25.76
46886;BME280;32622;48.202;11.326;2022-09-21T05:06:47;1027.82;;;6.84;25.34
46886;BME280;32622;48.202;11.326;2022-09-21T05:08:50;1027.75;;;7.11;25.15
46886;BME280;32622;48.202;11.326;2022-09-21T05:10:54;1027.74;;;7.18;24.90
46886;BME280;32622;48.202;11.326;2022-09-21T05:12:57;1027.97;;;6.33;25.89
46886;BME280;32622;48.202;11.326;2022-09-21T05:15:00;1027.87;;;6.89;25.67
46886;BME280;32622;48.202;11.326;2022-09-21T05:17:03;1027.90;;;7.00;25.81
46886;BME280;32622;48.202;11.326;2022-09-21T05:19:06;1027.98;;;6.69;25.62
46886;BME280;32622;48.202;11.326;2022-09-21T05:21:11;1027.84;;;7.30;25.12
46886;BME280;32622;48.202;11.326;2022-09-21T05:23:14;1027.86;;;7.25;25.06
46886;BME280;32622;48.202;11.326;2022-09-21T05:25:17;1027.81;;;7.60;24.92
46886;BME280;32622;48.202;11.326;2022-09-21T05:27:20;1027.77;;;7.81;25.06
46886;BME280;32622;48.202;11.326;2022-09-21T05:29:24;1027.78;;;7.79;24.89
46886;BME280;32622;48.202;11.326;2022-09-21T05:31:35;1027.74;;;7.98;24.61
46886;BME280;32622;48.202;11.326;2022-09-21T05:33:45;1027.77;;;7.77;24.64
46886;BME280;32622;48.202;11.326;2022-09-21T05:36:00;1027.77;;;7.95;24.63
46886;BME280;32622;48.202;11.326;2022-09-21T05:38:10;1027.88;;;7.38;25.19
46886;BME280;32622;48.202;11.326;2022-09-21T05:40:16;1027.80;;;7.59;24.68
46886;BME280;32622;48.202;11.326;2022-09-21T05:42:19;1027.62;;;8.33;23.99
46886;BME280;32622;48.202;11.326;2022-09-21T05:44:23;1027.48;;;8.88;23.61
46886;BME280;32622;48.202;11.326;2022-09-21T05:46:36;1027.47;;;9.04;23.37
46886;BME280;32622;48.202;11.326;2022-09-21T05:48:42;1027.34;;;9.61;23.00
46886;BME280;32622;48.202;11.326;2022-09-21T05:50:54;1027.37;;;9.49;22.88
46886;BME280;32622;48.202;11.326;2022-09-21T05:53:06;1027.25;;;10.10;22.71
46886;BME280;32622;48.202;11.326;2022-09-21T05:55:22;1027.24;;;10.22;22.14
46886;BME280;32622;48.202;11.326;2022-09-21T05:57:36;1027.28;;;10.05;22.07
46886;BME280;32622;48.202;11.326;2022-09-21T05:59:49;1027.15;;;10.67;21.86
46886;BME280;32622;48.202;11.326;2022-09-21T06:02:02;1027.30;;;10.06;22.07
46886;BME280;32622;48.202;11.326;2022-09-21T06:04:10;1027.32;;;9.80;22.41
46886;BME280;32622;48.202;11.326;2022-09-21T06:06:13;1027.30;;;10.04;22.20
46886;BME280;32622;48.202;11.326;2022-09-21T06:08:16;1027.44;;;9.52;22.58
46886;BME280;32622;48.202;11.326;2022-09-21T06:10:19;1027.31;;;10.25;21.70
46886;BME280;32622;48.202;11.326;2022-09-21T06:12:22;1027.17;;;10.79;21.67
46886;BME280;32622;48.202;11.326;2022-09-21T06:14:25;1027.02;;;11.52;20.81
46886;BME280;32622;48.202;11.326;2022-09-21T06:16:36;1027.10;;;11.26;21.09
46886;BME280;32622;48.202;11.326;2022-09-21T06:18:40;1027.27;;;10.46;21.47
46886;BME280;32622;48.202;11.326;2022-09-21T06:20:43;1027.10;;;11.16;21.31
46886;BME280;32622;48.202;11.326;2022-09-21T06:22:46;1026.76;;;12.84;20.23
46886;BME280;32622;48.202;11.326;2022-09-21T06:24:49;1026.79;;;12.67;19.86
46886;BME280;32622;48.202;11.326;2022-09-21T06:26:52;1026.59;;;13.43;19.27
46886;BME280;32622;48.202;11.326;2022-09-21T06:28:55;1026.41;;;14.35;18.96
46886;BME280;32622;48.202;11.326;2022-09-21T06:30:58;1026.33;;;14.80;18.86
46886;BME280;32622;48.202;11.326;2022-09-21T06:33:03;1026.55;;;13.93;19.07
46886;BME280;32622;48.202;11.326;2022-09-21T06:35:07;1026.54;;;14.04;19.26
46886;BME280;32622;48.202;11.326;2022-09-21T06:37:11;1026.43;;;14.68;18.97
46886;BME280;32622;48.202;11.326;2022-09-21T06:39:14;1026.47;;;14.31;19.17
46886;BME280;32622;48.202;11.326;2022-09-21T06:41:17;1026.45;;;14.43;18.85
46886;BME280;32622;48.202;11.326;2022-09-21T06:43:20;1026.63;;;13.58;19.23
46886;BME280;32622;48.202;11.326;2022-09-21T06:45:23;1026.47;;;14.38;19.03
46886;BME280;32622;48.202;11.326;2022-09-21T06:47:29;1026.38;;;14.93;18.69
46886;BME280;32622;48.202;11.326;2022-09-21T06:49:32;1026.74;;;13.28;19.70
46886;BME280;32622;48.202;11.326;2022-09-21T06:51:35;1026.67;;;13.56;20.11
46886;BME280;32622;48.202;11.326;2022-09-21T06:53:38;1026.61;;;13.87;20.31
46886;BME280;32622;48.202;11.326;2022-09-21T06:55:41;1026.57;;;14.13;20.08
46886;BME280;32622;48.202;11.326;2022-09-21T06:57:44;1026.50;;;14.51;19.87
46886;BME280;32622;48.202;11.326;2022-09-21T06:59:47;1026.85;;;12.93;20.38
46886;BME280;32622;48.202;11.326;2022-09-21T07:01:51;1026.55;;;14.32;20.00
46886;BME280;32622;48.202;11.326;2022-09-21T07:03:53;1026.47;;;14.63;19.64
46886;BME280;32622;48.202;11.326;2022-09-21T07:05:56;1026.42;;;14.77;20.07
46886;BME280;32622;48.202;11.326;2022-09-21T07:08:00;1026.52;;;14.37;19.89
46886;BME280;32622;48.202;11.326;2022-09-21T07:10:04;1026.38;;;14.99;20.06
46886;BME280;32622;48.202;11.326;2022-09-21T07:12:07;1026.65;;;13.96;20.41
46886;BME280;32622;48.202;11.326;2022-09-21T07:14:10;1027.20;;;11.73;21.97
46886;BME280;32622;48.202;11.326;2022-09-21T07:16:13;1027.17;;;11.83;22.71
46886;BME280;32622;48.202;11.326;2022-09-21T07:18:16;1027.04;;;12.49;22.54
46886;BME280;32622;48.202;11.326;2022-09-21T07:20:19;1026.94;;;12.90;22.10
46886;BME280;32622;48.202;11.326;2022-09-21T07:22:22;1027.34;;;11.03;23.17
46886;BME280;32622;48.202;11.326;2022-09-21T07:24:25;1027.48;;;10.65;24.87
46886;BME280;32622;48.202;11.326;2022-09-21T07:26:28;1027.57;;;10.30;24.74
46886;BME280;32622;48.202;11.326;2022-09-21T07:28:31;1027.62;;;9.93;25.67
46886;BME280;32622;48.202;11.326;2022-09-21T07:30:36;1027.37;;;11.05;24.66
46886;BME280;32622;48.202;11.326;2022-09-21T07:32:39;1027.99;;;8.21;26.75
46886;BME280;32622;48.202;11.326;2022-09-21T07:34:43;1027.67;;;9.59;26.36
46886;BME280;32622;48.202;11.326;2022-09-21T07:36:46;1027.71;;;9.51;26.28
46886;BME280;32622;48.202;11.326;2022-09-21T07:38:49;1027.81;;;9.21;27.06
46886;BME280;32622;48.202;11.326;2022-09-21T07:40:52;1027.88;;;9.13;27.49
46886;BME280;32622;48.202;11.326;2022-09-21T07:42:57;1027.73;;;9.58;27.65
46886;BME280;32622;48.202;11.326;2022-09-21T07:45:00;1027.93;;;8.99;28.31
46886;BME280;32622;48.202;11.326;2022-09-21T07:47:04;1028.33;;;7.16;29.46
46886;BME280;32622;48.202;11.326;2022-09-21T07:49:07;1027.95;;;8.94;28.73
46886;BME280;32622;48.202;11.326;2022-09-21T07:51:13;1028.36;;;7.04;30.17
46886;BME280;32622;48.202;11.326;2022-09-21T07:53:16;1027.97;;;8.92;28.65
46886;BME280;32622;48.202;11.326;2022-09-21T07:55:19;1027.82;;;9.54;27.59
46886;BME280;32622;48.202;11.326;2022-09-21T07:57:22;1027.74;;;9.77;27.50
46886;BME280;32622;48.202;11.326;2022-09-21T07:59:25;1027.86;;;9.33;27.61
46886;BME280;32622;48.202;11.326;2022-09-21T08:01:28;1027.70;;;10.12;27.28
46886;BME280;32622;48.202;11.326;2022-09-21T08:03:31;1027.97;;;9.12;27.75
46886;BME280;32622;48.202;11.326;2022-09-21T08:05:34;1027.76;;;9.78;27.32
46886;BME280;32622;48.202;11.326;2022-09-21T08:07:37;1027.68;;;10.03;27.31
46886;BME280;32622;48.202;11.326;2022-09-21T08:09:40;1028.18;;;8.35;28.02
46886;BME280;32622;48.202;11.326;2022-09-21T08:11:43;1028.08;;;8.74;28.33
46886;BME280;32622;48.202;11.326;2022-09-21T08:13:47;1028.11;;;8.64;29.14
46886;BME280;32622;48.202;11.326;2022-09-21T08:15:57;1028.07;;;8.82;28.85
46886;BME280;32622;48.202;11.326;2022-09-21T08:18:00;1028.05;;;8.84;28.51
46886;BME280;32622;48.202;11.326;2022-09-21T08:20:03;1028.68;;;6.24;31.00
46886;BME280;32622;48.202;11.326;2022-09-21T08:22:06;1028.21;;;8.19;29.61
46886;BME280;32622;48.202;11.326;2022-09-21T08:24:10;1028.28;;;7.78;29.72
46886;BME280;32622;48.202;11.326;2022-09-21T08:26:15;1028.34;;;7.52;29.55
46886;BME280;32622;48.202;11.326;2022-09-21T08:28:18;1028.10;;;8.77;28.60
46886;BME280;32622;48.202;11.326;2022-09-21T08:30:21;1028.89;;;5.57;32.59
46886;BME280;32622;48.202;11.326;2022-09-21T08:32:24;1028.19;;;8.43;29.87
46886;BME280;32622;48.202;11.326;2022-09-21T08:34:27;1028.35;;;7.83;30.74
46886;BME280;32622;48.202;11.326;2022-09-21T08:36:30;1027.97;;;9.45;28.48
46886;BME280;32622;48.202;11.326;2022-09-21T08:38:34;1027.62;;;10.66;26.40
46886;BME280;32622;48.202;11.326;2022-09-21T08:40:40;1027.46;;;11.41;25.52
46886;BME280;32622;48.202;11.326;2022-09-21T08:42:51;1027.57;;;10.97;25.33
46886;BME280;32622;48.202;11.326;2022-09-21T08:44:59;1027.53;;;11.39;25.11
46886;BME280;32622;48.202;11.326;2022-09-21T08:47:07;1027.27;;;12.18;23.82
46886;BME280;32622;48.202;11.326;2022-09-21T08:49:16;1027.26;;;12.25;23.56
46886;BME280;32622;48.202;11.326;2022-09-21T08:51:25;1027.24;;;12.34;22.97
46886;BME280;32622;48.202;11.326;2022-09-21T08:53:32;1027.56;;;11.05;24.77
46886;BME280;32622;48.202;11.326;2022-09-21T08:55:36;1027.64;;;10.69;26.02
46886;BME280;32622;48.202;11.326;2022-09-21T08:57:39;1027.44;;;11.51;24.64
46886;BME280;32622;48.202;11.326;2022-09-21T08:59:45;1028.00;;;9.32;25.75
46886;BME280;32622;48.202;11.326;2022-09-21T09:01:55;1028.51;;;7.21;28.45
46886;BME280;32622;48.202;11.326;2022-09-21T09:04:21;1027.95;;;9.45;27.20
46886;BME280;32622;48.202;11.326;2022-09-21T09:06:31;1027.83;;;9.84;26.83
46886;BME280;32622;48.202;11.326;2022-09-21T09:08:49;1027.86;;;9.59;26.85
46886;BME280;32622;48.202;11.326;2022-09-21T09:11:04;1027.50;;;11.08;25.68
46886;BME280;32622;48.202;11.326;2022-09-21T09:13:35;1027.97;;;9.34;27.38
46886;BME280;32622;48.202;11.326;2022-09-21T09:15:51;1028.28;;;7.96;30.03
46886;BME280;32622;48.202;11.326;2022-09-21T09:18:02;1028.18;;;8.51;28.94
46886;BME280;32622;48.202;11.326;2022-09-21T09:20:12;1028.47;;;7.04;29.61
46886;BME280;32622;48.202;11.326;2022-09-21T09:22:19;1027.82;;;9.75;26.92
46886;BME280;32622;48.202;11.326;2022-09-21T09:24:31;1027.50;;;11.06;25.62
46886;BME280;32622;48.202;11.326;2022-09-21T09:26:38;1027.56;;;10.83;25.18
46886;BME280;32622;48.202;11.326;2022-09-21T09:28:48;1027.56;;;10.82;25.42
46886;BME280;32622;48.202;11.326;2022-09-21T09:30:58;1028.37;;;7.68;26.96
46886;BME280;32622;48.202;11.326;2022-09-21T09:33:06;1028.02;;;8.99;27.11
46886;BME280;32622;48.202;11.326;2022-09-21T09:35:20;1027.81;;;9.53;26.25
46886;BME280;32622;48.202;11.326;2022-09-21T09:37:31;1027.61;;;10.37;25.25
46886;BME280;32622;48.202;11.326;2022-09-21T09:39:36;1027.73;;;9.70;26.27
46886;BME280;32622;48.202;11.326;2022-09-21T09:41:52;1027.54;;;10.37;25.99
46886;BME280;32622;48.202;11.326;2022-09-21T09:44:12;1027.21;;;11.64;24.82
46886;BME280;32622;48.202;11.326;2022-09-21T09:46:28;1027.20;;;11.54;24.03
46886;BME280;32622;48.202;11.326;2022-09-21T09:48:47;1027.79;;;9.09;26.03
46886;BME280;32622;48.202;11.326;2022-09-21T09:50:54;1028.40;;;6.55;29.86
46886;BME280;32622;48.202;11.326;2022-09-21T09:53:02;1027.83;;;9.13;27.42
46886;BME280;32622;48.202;11.326;2022-09-21T09:55:16;1027.56;;;9.87;26.48
46886;BME280;32622;48.202;11.326;2022-09-21T09:57:26;1027.65;;;9.46;27.15
46886;BME280;32622;48.202;11.326;2022-09-21T09:59:34;1027.98;;;7.74;28.05
46886;BME280;32622;48.202;11.326;2022-09-21T10:01:41;1027.82;;;8.39;27.88
46886;BME280;32622;48.202;11.326;2022-09-21T10:04:04;1028.05;;;7.58;28.73
46886;BME280;32622;48.202;11.326;2022-09-21T10:06:16;1028.32;;;6.26;29.38
46886;BME280;32622;48.202;11.326;2022-09-21T10:08:42;1027.85;;;7.83;28.49
46886;BME280;32622;48.202;11.326;2022-09-21T10:10:47;1028.18;;;6.69;29.89
46886;BME280;32622;48.202;11.326;2022-09-21T10:12:51;1027.88;;;7.79;30.08
46886;BME280;32622;48.202;11.326;2022-09-21T10:14:56;1027.75;;;8.29;27.82
46886;BME280;32622;48.202;11.326;2022-09-21T10:17:04;1028.22;;;6.20;29.28
46886;BME280;32622;48.202;11.326;2022-09-21T10:19:14;1027.98;;;7.06;29.28
46886;BME280;32622;48.202;11.326;2022-09-21T10:21:21;1027.97;;;7.27;29.90
46886;BME280;32622;48.202;11.326;2022-09-21T10:23:26;1027.74;;;7.90;28.05
46886;BME280;32622;48.202;11.326;2022-09-21T10:25:30;1027.88;;;7.15;29.01
46886;BME280;32622;48.202;11.326;2022-09-21T10:27:34;1027.83;;;7.48;29.19
46886;BME280;32622;48.202;11.326;2022-09-21T10:29:40;1027.52;;;8.54;27.58
46886;BME280;32622;48.202;11.326;2022-09-21T10:31:54;1027.68;;;7.61;28.04
46886;BME280;32622;48.202;11.326;2022-09-21T10:34:11;1028.31;;;5.29;31.71
46886;BME280;32622;48.202;11.326;2022-09-21T10:36:26;1028.09;;;6.02;30.57
46886;BME280;32622;48.202;11.326;2022-09-21T10:38:30;1028.01;;;6.24;29.72
46886;BME280;32622;48.202;11.326;2022-09-21T10:40:35;1027.81;;;7.01;28.39
46886;BME280;32622;48.202;11.326;2022-09-21T10:42:41;1027.99;;;6.44;29.95
46886;BME280;32622;48.202;11.326;2022-09-21T10:44:47;1027.85;;;6.80;30.19
46886;BME280;32622;48.202;11.326;2022-09-21T10:46:51;1028.05;;;6.04;31.08
46886;BME280;32622;48.202;11.326;2022-09-21T10:48:55;1028.00;;;6.45;29.26
46886;BME280;32622;48.202;11.326;2022-09-21T10:50:58;1027.84;;;6.86;30.35
46886;BME280;32622;48.202;11.326;2022-09-21T10:53:11;1028.30;;;5.00;32.36
46886;BME280;32622;48.202;11.326;2022-09-21T10:55:21;1027.70;;;7.39;30.21
46886;BME280;32622;48.202;11.326;2022-09-21T10:57:27;1028.06;;;5.82;29.81
46886;BME280;32622;48.202;11.326;2022-09-21T10:59:33;1028.00;;;6.16;31.12
46886;BME280;32622;48.202;11.326;2022-09-21T11:01:43;1028.00;;;5.87;31.14
46886;BME280;32622;48.202;11.326;2022-09-21T11:03:49;1027.41;;;7.95;28.70
46886;BME280;32622;48.202;11.326;2022-09-21T11:05:55;1027.67;;;7.24;28.98
46886;BME280;32622;48.202;11.326;2022-09-21T11:08:04;1028.33;;;4.88;32.82
46886;BME280;32622;48.202;11.326;2022-09-21T11:10:15;1027.92;;;6.08;31.48
46886;BME280;32622;48.202;11.326;2022-09-21T11:12:32;1027.58;;;7.57;30.22
46886;BME280;32622;48.202;11.326;2022-09-21T11:14:55;1027.97;;;5.77;32.99
46886;BME280;32622;48.202;11.326;2022-09-21T11:20:02;1028.11;;;5.10;34.86